Aérodrome :
LOGIN :

S'inscrire | Disclaimer

   EN    FR    IT 

 










Légende :    VFR   VFR Marginal   IFR   IFR Intensif   IFR Très Intensif
Visi : 
Plafond : 
>= 8 km
>= 3000ft
5 à 8 km
1000 à 3000 ft
1500m à 5 km
500 à 1000 ft
800 à 1500m
200 à 500 ft
< 800m
< 200 ft
Symboles :   Orages  Brouillard  Fortes neiges  Fortes précipitations  Vent > 20 kt
SIGMETs :   Divers  Orages  Givrage  Turbulence  Onde Orograph.  Cendres Volcan.






- Altitude de l'aérodrome : 197 ft
- Code IATA : XOG


LFMO - Orange

DERNIER METAR :
  • 171900Z AUTO 35020KT CAVOK 07/01 Q1024 NOSIG

METARs EXPIRÉS :
  • 171830Z AUTO 34022G36KT CAVOK 07/01 Q1024 BECMG 32015KT
  • 171800Z AUTO 34020G31KT CAVOK 07/01 Q1023 BECMG 32015KT
  • 171730Z AUTO 35018KT 9999 FEW066 07/01 Q1023 NOSIG
  • 171700Z AUTO 34017KT 9999 FEW068 07/01 Q1023 NOSIG
  • 171630Z AUTO 35016KT 310V020 9999 FEW032 BKN052 BKN068 08/02 Q1023 NOSIG

TAF TAF LFMO
Valide du 17 à 15h jusqu'au 18 à 15h UTC


171400Z 1715/1815 32015KT 9999 BKN045 TX09/1813Z TN02/1804Z



MET'MAP, la Météo Aéronautique d'un coup d'oeil ! - Copyright ORBIFLY Décembre 2007 - Disclaimer

ORBIFLY MET'MAP TEAM :

Programmation & Développement : Alexandra Zaïnal
Sur une idée originale de : Baudouin d'Aumeries
Assistance à la programmation : Marc-Olivier Méhu
Soutien technique & logistique : Manuel Goepfert

Contact : metmap@orbifly.com




SOURCES & CREDITS :

   NOAA